createdAt,value
2024-03-07T00:01:01.593Z,19.50
2024-03-07T00:03:30.132Z,19.63
2024-03-07T00:05:57.131Z,19.77
2024-03-07T00:08:28.018Z,20.30
2024-03-07T00:10:55.128Z,19.83
2024-03-07T00:13:22.672Z,20.07
2024-03-07T00:15:49.608Z,20.73
2024-03-07T00:18:16.648Z,21.07
2024-03-07T00:20:44.189Z,20.33
2024-03-07T00:23:11.302Z,20.10
2024-03-07T00:25:39.933Z,21.13
2024-03-07T00:28:08.030Z,20.17
2024-03-07T00:30:35.265Z,20.43
2024-03-07T00:33:02.504Z,20.77
2024-03-07T00:35:29.573Z,20.83
2024-03-07T00:37:57.678Z,20.93
2024-03-07T00:40:27.762Z,21.03
2024-03-07T00:42:55.095Z,21.90
2024-03-07T00:45:22.341Z,21.90
2024-03-07T00:47:49.761Z,21.57
2024-03-07T00:50:17.256Z,21.57
2024-03-07T00:52:44.278Z,21.33
2024-03-07T00:55:11.321Z,20.50
2024-03-07T00:57:38.611Z,22.00
2024-03-07T01:00:13.029Z,21.73
2024-03-07T01:02:44.560Z,21.97
2024-03-07T01:05:14.588Z,22.67
2024-03-07T01:07:42.512Z,22.63
2024-03-07T01:10:10.663Z,22.37
2024-03-07T01:12:38.056Z,22.27
2024-03-07T01:15:09.893Z,21.87
2024-03-07T01:17:36.993Z,20.70
2024-03-07T01:20:07.700Z,20.37
2024-03-07T01:22:35.371Z,20.40
2024-03-07T01:25:02.597Z,21.27
2024-03-07T01:27:29.930Z,22.97
2024-03-07T01:29:57.043Z,22.70
2024-03-07T01:32:26.656Z,22.43
2024-03-07T01:34:53.964Z,22.37
2024-03-07T01:37:20.945Z,22.67
2024-03-07T01:39:51.170Z,23.00
2024-03-07T01:42:21.082Z,22.80
2024-03-07T01:44:52.584Z,23.23
2024-03-07T01:47:20.118Z,22.97
2024-03-07T01:49:47.217Z,23.47
2024-03-07T01:52:14.804Z,23.40
2024-03-07T01:54:43.584Z,24.80
2024-03-07T01:57:11.439Z,23.10
2024-03-07T01:59:39.100Z,23.07
2024-03-07T02:02:08.942Z,24.50
2024-03-07T02:04:35.942Z,23.03
2024-03-07T02:07:03.088Z,23.37
2024-03-07T02:09:30.708Z,23.47
2024-03-07T02:11:57.832Z,22.90
2024-03-07T02:14:25.066Z,23.67
2024-03-07T02:16:52.397Z,22.63
2024-03-07T02:19:19.318Z,21.80
2024-03-07T02:21:46.292Z,22.33
2024-03-07T02:24:13.364Z,20.90
2024-03-07T02:26:41.172Z,20.93
2024-03-07T02:29:08.508Z,20.43
2024-03-07T02:31:38.195Z,20.33
2024-03-07T02:34:05.602Z,20.00
2024-03-07T02:36:35.493Z,19.90
2024-03-07T02:39:02.826Z,19.77
2024-03-07T02:41:29.857Z,18.97
2024-03-07T02:43:56.773Z,18.40
2024-03-07T02:46:23.708Z,18.37
2024-03-07T02:48:50.710Z,18.03
2024-03-07T02:51:17.797Z,17.90
2024-03-07T02:53:47.642Z,17.60
2024-03-07T02:56:15.238Z,18.33
2024-03-07T02:58:42.280Z,18.83
2024-03-07T03:01:09.226Z,19.07
2024-03-07T03:03:37.559Z,17.97
2024-03-07T03:06:09.734Z,18.30
2024-03-07T03:08:40.063Z,18.07
2024-03-07T03:11:10.717Z,17.87
2024-03-07T03:13:44.831Z,17.70
2024-03-07T03:16:11.901Z,16.83
2024-03-07T03:18:41.893Z,16.43
2024-03-07T03:21:09.301Z,17.33
2024-03-07T03:23:37.582Z,16.37
2024-03-07T03:26:05.028Z,16.93
2024-03-07T03:28:32.922Z,15.80
2024-03-07T03:31:00.297Z,15.27
2024-03-07T03:33:27.377Z,15.50
2024-03-07T03:35:56.675Z,16.53
2024-03-07T03:38:23.857Z,15.87
2024-03-07T03:40:50.936Z,15.57
2024-03-07T03:43:18.046Z,15.80
2024-03-07T03:45:45.001Z,14.93
2024-03-07T03:48:12.078Z,15.83
2024-03-07T03:50:39.280Z,14.33
2024-03-07T03:53:11.295Z,13.50
2024-03-07T03:55:38.374Z,13.77
2024-03-07T03:58:06.820Z,13.23
2024-03-07T04:00:33.938Z,14.20
2024-03-07T04:03:04.150Z,13.97
2024-03-07T04:05:31.277Z,13.07
2024-03-07T04:07:59.731Z,13.13
2024-03-07T04:10:27.025Z,13.20
2024-03-07T04:12:53.922Z,12.50
2024-03-07T04:15:27.898Z,12.90
2024-03-07T04:17:54.934Z,13.63
2024-03-07T04:20:21.911Z,12.93
2024-03-07T04:22:50.667Z,12.10
2024-03-07T04:25:18.091Z,12.00
2024-03-07T04:27:47.961Z,12.40
2024-03-07T04:30:18.284Z,12.43
2024-03-07T04:32:45.424Z,12.00
2024-03-07T04:35:15.257Z,12.33
2024-03-07T04:37:44.155Z,11.90
2024-03-07T04:40:18.600Z,11.60
2024-03-07T04:42:47.976Z,12.60
2024-03-07T04:45:15.701Z,13.37
2024-03-07T04:47:46.688Z,13.00
2024-03-07T04:50:19.425Z,12.27
2024-03-07T04:52:47.764Z,12.03
2024-03-07T04:55:17.501Z,12.80
2024-03-07T04:57:44.862Z,11.47
2024-03-07T05:00:15.588Z,13.00
2024-03-07T05:02:49.932Z,12.03
2024-03-07T05:05:23.597Z,12.20
2024-03-07T05:07:52.242Z,11.77
2024-03-07T05:10:19.801Z,12.13
2024-03-07T05:12:47.139Z,12.33
2024-03-07T05:15:14.140Z,11.97
2024-03-07T05:17:44.029Z,11.93
2024-03-07T05:20:12.187Z,11.30
2024-03-07T05:22:42.145Z,12.23
2024-03-07T05:25:10.462Z,11.73
2024-03-07T05:27:37.605Z,12.13
2024-03-07T05:30:13.755Z,12.43
2024-03-07T05:32:41.332Z,12.13
2024-03-07T05:35:08.860Z,12.47
2024-03-07T05:37:35.861Z,12.67
2024-03-07T05:40:04.935Z,12.60
2024-03-07T05:42:33.210Z,12.17
2024-03-07T05:45:01.614Z,12.50
2024-03-07T05:47:28.765Z,12.53
2024-03-07T05:49:55.761Z,12.70
2024-03-07T05:52:22.843Z,12.80
2024-03-07T05:54:49.700Z,11.97
2024-03-07T05:57:21.104Z,12.87
2024-03-07T05:59:49.010Z,11.93
2024-03-07T06:02:16.676Z,12.20
2024-03-07T06:04:44.862Z,12.10
2024-03-07T06:07:14.852Z,11.60
2024-03-07T06:09:41.813Z,11.90
2024-03-07T06:12:19.476Z,11.70
2024-03-07T06:14:50.961Z,11.57
2024-03-07T06:17:22.957Z,11.60
2024-03-07T06:19:50.496Z,12.23
2024-03-07T06:22:17.588Z,11.30
2024-03-07T06:24:45.851Z,11.33
2024-03-07T06:27:27.841Z,11.20
2024-03-07T06:29:55.624Z,11.50
2024-03-07T06:32:23.949Z,11.47
2024-03-07T06:34:52.418Z,11.57
2024-03-07T06:37:22.848Z,11.37
2024-03-07T06:39:49.865Z,10.97
2024-03-07T06:42:19.718Z,12.20
2024-03-07T06:44:47.260Z,11.67
2024-03-07T06:47:14.891Z,11.37
2024-03-07T06:49:42.315Z,11.27
2024-03-07T06:52:12.443Z,11.47
2024-03-07T06:54:39.459Z,11.90
2024-03-07T06:57:09.774Z,12.63
2024-03-07T06:59:37.501Z,12.00
2024-03-07T07:02:05.055Z,11.07
2024-03-07T07:04:43.196Z,10.40
2024-03-07T07:07:13.283Z,10.90
2024-03-07T07:09:52.695Z,11.23
2024-03-07T07:12:21.642Z,11.63
2024-03-07T07:14:51.804Z,11.37
2024-03-07T07:17:22.679Z,11.50
2024-03-07T07:20:00.619Z,11.03
2024-03-07T07:22:29.906Z,11.27
2024-03-07T07:25:33.307Z,10.27
2024-03-07T07:27:54.059Z,11.80
2024-03-07T07:30:26.564Z,11.90
2024-03-07T07:32:56.049Z,12.03
2024-03-07T07:35:23.766Z,11.60
2024-03-07T07:37:55.093Z,11.40
2024-03-07T07:40:24.338Z,14.93
2024-03-07T07:42:53.620Z,14.53
2024-03-07T07:45:23.370Z,15.23
2024-03-07T07:47:55.753Z,12.27
2024-03-07T07:50:24.930Z,12.20
2024-03-07T07:52:55.150Z,12.00
2024-03-07T07:55:28.638Z,11.73
2024-03-07T07:58:03.986Z,11.80
2024-03-07T08:00:36.252Z,11.43
2024-03-07T08:03:05.597Z,11.87
2024-03-07T08:05:37.589Z,11.23
2024-03-07T08:08:07.949Z,11.70
2024-03-07T08:10:36.973Z,12.43
2024-03-07T08:13:11.823Z,11.77
2024-03-07T08:15:39.055Z,11.73
2024-03-07T08:18:13.322Z,12.13
2024-03-07T08:20:42.383Z,11.00
2024-03-07T08:23:10.897Z,10.53
2024-03-07T08:25:40.825Z,11.37
2024-03-07T08:28:09.037Z,10.60
2024-03-07T08:30:36.260Z,10.70
2024-03-07T08:33:07.113Z,10.80
2024-03-07T08:35:35.154Z,10.97
2024-03-07T08:38:06.378Z,10.27
2024-03-07T08:40:34.543Z,9.83
2024-03-07T08:43:02.871Z,10.80
2024-03-07T08:45:35.441Z,10.20
2024-03-07T08:48:08.496Z,11.07
2024-03-07T08:50:38.810Z,9.50
2024-03-07T08:53:06.802Z,9.70
2024-03-07T08:55:34.161Z,9.43
2024-03-07T08:58:02.690Z,9.53
2024-03-07T09:00:29.749Z,10.20
2024-03-07T09:03:02.470Z,10.63
2024-03-07T09:05:34.975Z,10.33
2024-03-07T09:08:03.103Z,10.27
2024-03-07T09:10:36.310Z,10.70
2024-03-07T09:13:03.839Z,10.50
2024-03-07T09:15:30.763Z,10.30
2024-03-07T09:18:10.309Z,10.40
2024-03-07T09:20:39.170Z,10.30
2024-03-07T09:23:07.212Z,10.40
2024-03-07T09:25:35.796Z,10.23
2024-03-07T09:28:02.882Z,10.13
2024-03-07T09:30:32.019Z,9.43
2024-03-07T09:33:03.536Z,10.60
2024-03-07T09:35:30.636Z,10.67
2024-03-07T09:38:00.441Z,9.67
2024-03-07T09:40:28.338Z,10.50
2024-03-07T09:42:58.730Z,9.93
2024-03-07T09:45:31.460Z,10.63
2024-03-07T09:48:00.760Z,10.60
2024-03-07T09:50:31.009Z,10.77
2024-03-07T09:53:02.016Z,10.07
2024-03-07T09:55:29.385Z,10.63
2024-03-07T09:57:59.373Z,10.00
2024-03-07T10:00:29.509Z,10.43
2024-03-07T10:03:06.645Z,10.20
2024-03-07T10:05:34.336Z,11.80
2024-03-07T10:08:02.998Z,10.63
2024-03-07T10:10:32.477Z,11.77
2024-03-07T10:13:06.506Z,11.93
2024-03-07T10:15:41.212Z,11.87
2024-03-07T10:18:11.206Z,11.83
2024-03-07T10:20:41.025Z,11.63
2024-03-07T10:23:12.055Z,12.00
2024-03-07T10:25:39.919Z,12.60
2024-03-07T10:28:10.278Z,13.00
2024-03-07T10:30:46.849Z,13.70
2024-03-07T10:33:14.718Z,13.20
2024-03-07T10:35:47.929Z,12.60
2024-03-07T10:38:15.961Z,14.00
2024-03-07T10:40:44.846Z,13.20
2024-03-07T10:43:13.313Z,13.27
2024-03-07T10:45:48.609Z,13.77
2024-03-07T10:48:24.946Z,13.23
2024-03-07T10:51:18.549Z,13.77
2024-03-07T10:54:02.493Z,13.53
2024-03-07T10:56:51.661Z,14.57
2024-03-07T10:59:20.808Z,14.60
2024-03-07T11:02:01.143Z,13.13
2024-03-07T11:04:31.371Z,13.37
2024-03-07T11:07:00.148Z,13.87
2024-03-07T11:09:34.943Z,14.13
2024-03-07T11:12:07.897Z,14.43
2024-03-07T11:14:38.832Z,13.80
2024-03-07T11:17:07.631Z,13.90
2024-03-07T11:19:38.186Z,14.07
2024-03-07T11:22:18.504Z,14.57
2024-03-07T11:24:46.868Z,14.47
2024-03-07T11:27:17.580Z,13.63
2024-03-07T11:29:48.093Z,13.90
2024-03-07T11:32:16.352Z,13.70
2024-03-07T11:34:48.256Z,14.10
2024-03-07T11:37:41.991Z,14.53
2024-03-07T11:40:10.169Z,14.10
2024-03-07T11:42:37.839Z,14.83
2024-03-07T11:45:08.398Z,14.77
2024-03-07T11:47:40.421Z,15.20
2024-03-07T11:50:13.470Z,15.37
2024-03-07T11:52:45.745Z,15.60
2024-03-07T11:55:17.630Z,16.40
2024-03-07T11:57:46.031Z,15.83
2024-03-07T12:00:14.097Z,18.23
2024-03-07T12:02:41.778Z,15.70
2024-03-07T12:05:09.360Z,16.23
2024-03-07T12:07:39.617Z,17.23
2024-03-07T12:10:07.936Z,20.00
2024-03-07T12:12:35.373Z,18.33
2024-03-07T12:15:22.172Z,16.70
2024-03-07T12:17:51.080Z,17.73
2024-03-07T12:20:50.610Z,17.47
2024-03-07T12:23:20.599Z,18.60
2024-03-07T12:25:48.981Z,18.17
2024-03-07T12:28:31.066Z,18.10
2024-03-07T12:30:58.841Z,19.47
2024-03-07T12:33:28.738Z,19.43
2024-03-07T12:57:11.907Z,19.67
2024-03-07T12:59:43.069Z,19.90
2024-03-07T13:02:11.755Z,19.43
2024-03-07T13:04:41.318Z,19.40
2024-03-07T13:07:11.439Z,19.80
2024-03-07T13:09:45.458Z,19.43
2024-03-07T13:12:15.330Z,19.50
2024-03-07T13:14:47.465Z,20.00
2024-03-07T13:17:15.395Z,20.77
2024-03-07T13:19:44.954Z,19.90
2024-03-07T13:22:13.311Z,19.80
2024-03-07T13:24:43.894Z,19.20
2024-03-07T13:27:21.252Z,19.37
2024-03-07T13:29:51.502Z,19.43
2024-03-07T13:32:18.618Z,19.90
2024-03-07T13:34:46.821Z,18.70
2024-03-07T13:37:19.314Z,19.30
2024-03-07T13:39:48.360Z,18.80
2024-03-07T13:42:16.066Z,18.63
2024-03-07T13:44:46.062Z,18.23
2024-03-07T13:47:13.016Z,19.47
2024-03-07T13:49:40.051Z,19.03
2024-03-07T13:52:19.726Z,17.60
2024-03-07T13:54:49.435Z,18.90
2024-03-07T13:57:44.662Z,18.90
2024-03-07T14:01:10.389Z,17.73
2024-03-07T14:04:23.004Z,17.73
2024-03-07T14:07:15.503Z,17.33
2024-03-07T14:10:25.936Z,20.07
2024-03-07T14:13:21.569Z,18.77
2024-03-07T14:16:09.968Z,19.70
2024-03-07T14:19:22.761Z,18.83
2024-03-07T14:22:18.378Z,17.87
2024-03-07T14:25:07.140Z,18.67
2024-03-07T14:27:40.466Z,19.23
2024-03-07T14:30:41.677Z,20.47
2024-03-07T14:33:09.799Z,20.07
2024-03-07T14:36:05.160Z,21.33
2024-03-07T14:38:45.859Z,21.43
2024-03-07T14:41:13.898Z,20.57
2024-03-07T14:43:42.554Z,19.67
2024-03-07T14:46:15.177Z,19.40
2024-03-07T14:48:47.351Z,18.00
2024-03-07T14:51:19.389Z,18.13
2024-03-07T14:53:46.837Z,18.33
2024-03-07T14:56:13.765Z,18.73
2024-03-07T14:58:42.462Z,18.37
2024-03-07T15:01:09.710Z,19.80
2024-03-07T15:03:40.760Z,18.77
2024-03-07T15:06:10.100Z,18.97
2024-03-07T15:08:40.048Z,20.10
2024-03-07T15:11:35.883Z,20.53
2024-03-07T15:14:05.666Z,19.60
2024-03-07T15:16:38.755Z,19.30
2024-03-07T15:19:08.194Z,18.50
2024-03-07T15:21:36.505Z,18.77
2024-03-07T15:24:04.696Z,18.93
2024-03-07T15:26:36.503Z,19.83
2024-03-07T15:29:03.750Z,19.77
2024-03-07T15:31:31.935Z,19.73
2024-03-07T15:34:00.141Z,20.67
2024-03-07T15:36:27.656Z,20.03
2024-03-07T15:38:58.848Z,20.23
2024-03-07T15:41:26.113Z,19.73
2024-03-07T15:43:55.958Z,20.03
2024-03-07T15:46:23.844Z,20.83
2024-03-07T15:48:51.435Z,20.50
2024-03-07T15:51:20.250Z,20.27
2024-03-07T15:53:47.410Z,20.63
2024-03-07T15:56:15.102Z,21.70
2024-03-07T15:58:42.348Z,22.93
2024-03-07T16:01:09.591Z,23.17
2024-03-07T16:03:43.320Z,23.30
2024-03-07T16:06:17.838Z,22.90
2024-03-07T16:08:45.468Z,24.10
2024-03-07T16:11:12.529Z,25.17
2024-03-07T16:13:57.737Z,24.53
2024-03-07T16:16:32.017Z,24.53
2024-03-07T16:19:01.629Z,26.17
2024-03-07T16:21:31.233Z,24.90
2024-03-07T16:23:58.225Z,25.30
2024-03-07T16:26:26.268Z,25.67
2024-03-07T16:28:59.001Z,26.20
2024-03-07T16:31:29.588Z,26.67
2024-03-07T16:33:57.304Z,26.13
2024-03-07T16:36:24.357Z,27.90
2024-03-07T16:38:54.001Z,26.07
2024-03-07T16:41:23.835Z,26.90
2024-03-07T16:43:53.985Z,27.20
2024-03-07T16:46:21.560Z,26.80
2024-03-07T16:48:48.543Z,26.70
2024-03-07T16:51:15.674Z,26.13
2024-03-07T16:53:42.700Z,27.10
2024-03-07T16:56:11.057Z,27.53
2024-03-07T16:58:38.007Z,28.37
2024-03-07T17:01:05.514Z,27.20
2024-03-07T17:03:32.485Z,27.87
2024-03-07T17:06:02.439Z,27.17
2024-03-07T17:08:29.820Z,27.13
2024-03-07T17:10:57.535Z,27.67
2024-03-07T17:13:24.797Z,28.47
2024-03-07T17:15:57.923Z,27.17
2024-03-07T17:18:28.471Z,28.47
2024-03-07T17:20:56.380Z,28.40
2024-03-07T17:23:25.182Z,28.63
2024-03-07T17:25:56.948Z,29.47
2024-03-07T17:28:24.102Z,28.07
2024-03-07T17:30:51.868Z,29.67
2024-03-07T17:33:18.876Z,29.27
2024-03-07T17:35:49.232Z,32.67
2024-03-07T17:38:16.268Z,31.10
2024-03-07T17:40:44.249Z,31.20
2024-03-07T17:43:12.231Z,34.13
2024-03-07T17:45:39.577Z,31.03
2024-03-07T17:48:12.060Z,29.17
2024-03-07T17:50:39.919Z,28.93
2024-03-07T17:53:12.390Z,29.77
2024-03-07T17:55:47.338Z,28.50
2024-03-07T17:58:15.660Z,28.73
2024-03-07T18:00:46.533Z,26.63
2024-03-07T18:03:14.426Z,27.40
2024-03-07T18:05:43.139Z,28.87
2024-03-07T18:11:01.964Z,30.33
2024-03-07T18:13:34.408Z,29.33
2024-03-07T18:16:01.914Z,30.63
2024-03-07T18:18:29.211Z,30.50
2024-03-07T18:20:57.756Z,29.10
2024-03-07T18:23:25.281Z,31.40
2024-03-07T18:25:55.584Z,31.90
2024-03-07T18:28:23.985Z,30.20
2024-03-07T18:30:52.213Z,30.67
2024-03-07T18:33:20.192Z,30.90
2024-03-07T18:35:48.184Z,30.33
2024-03-07T18:38:18.296Z,29.30
2024-03-07T18:40:48.167Z,32.13
2024-03-07T18:43:18.289Z,33.13
2024-03-07T18:45:47.993Z,31.63
2024-03-07T18:48:18.530Z,30.93
2024-03-07T18:50:47.861Z,33.20
2024-03-07T18:53:21.591Z,33.03
2024-03-07T18:55:51.134Z,32.13
2024-03-07T18:58:25.164Z,32.67
2024-03-07T19:00:58.499Z,33.03
2024-03-07T19:03:26.010Z,32.93
2024-03-07T19:05:53.723Z,33.77
2024-03-07T19:08:20.839Z,36.70
2024-03-07T19:11:01.754Z,37.23
2024-03-07T19:13:45.886Z,33.80
2024-03-07T19:16:32.937Z,35.43
2024-03-07T19:19:02.217Z,33.53
2024-03-07T19:21:29.254Z,32.97
2024-03-07T19:23:56.343Z,34.40
2024-03-07T19:26:24.211Z,34.63
2024-03-07T19:28:51.864Z,32.90
2024-03-07T19:31:20.498Z,34.20
2024-03-07T19:34:03.796Z,32.80
2024-03-07T19:36:30.993Z,32.90
2024-03-07T19:38:59.874Z,33.13
2024-03-07T19:41:27.407Z,33.40
2024-03-07T19:43:54.987Z,33.17
2024-03-07T19:46:24.182Z,33.50
2024-03-07T19:48:55.759Z,33.13
2024-03-07T19:51:26.486Z,35.07
2024-03-07T19:53:54.667Z,34.87
2024-03-07T19:56:25.869Z,32.03
2024-03-07T19:58:53.482Z,33.27
2024-03-07T20:01:23.829Z,33.77
2024-03-07T20:03:50.874Z,33.73
2024-03-07T20:06:20.007Z,32.67
2024-03-07T20:08:48.827Z,32.13
2024-03-07T20:11:15.997Z,31.87
2024-03-07T20:13:43.824Z,33.00
2024-03-07T20:16:14.427Z,32.57
2024-03-07T20:18:43.382Z,32.57
2024-03-07T20:21:11.427Z,32.63
2024-03-07T20:23:39.222Z,32.87
2024-03-07T20:26:06.717Z,33.07
2024-03-07T20:28:36.598Z,33.33
2024-03-07T20:31:05.054Z,32.37
2024-03-07T20:33:33.292Z,33.50
2024-03-07T20:36:06.081Z,32.47
2024-03-07T20:38:33.786Z,32.37
2024-03-07T20:41:01.329Z,31.27
2024-03-07T20:43:32.228Z,32.53
2024-03-07T20:46:03.609Z,33.43
2024-03-07T20:48:33.737Z,33.20
2024-03-07T20:51:01.337Z,33.37
2024-03-07T20:53:31.493Z,35.13
2024-03-07T20:56:07.490Z,33.27
2024-03-07T20:58:37.327Z,33.53
2024-03-07T21:01:04.921Z,33.70
2024-03-07T21:03:32.024Z,32.30
2024-03-07T21:05:59.657Z,33.83
2024-03-07T21:08:27.506Z,34.63
2024-03-07T21:10:56.708Z,34.57
2024-03-07T21:13:24.518Z,34.60
2024-03-07T21:15:51.493Z,32.50
2024-03-07T21:18:20.634Z,33.07
2024-03-07T21:20:49.066Z,32.97
2024-03-07T21:23:19.184Z,32.17
2024-03-07T21:25:46.752Z,32.57
2024-03-07T21:28:14.041Z,34.67
2024-03-07T21:30:41.158Z,33.47
2024-03-07T21:33:08.760Z,33.17
2024-03-07T21:35:36.681Z,32.13
2024-03-07T21:38:07.268Z,32.67
2024-03-07T21:40:34.243Z,32.60
2024-03-07T21:43:04.658Z,32.63
2024-03-07T21:45:31.766Z,34.07
2024-03-07T21:47:59.143Z,33.67
2024-03-07T21:50:30.283Z,32.43
2024-03-07T21:52:57.441Z,33.20
2024-03-07T21:55:25.429Z,32.77
2024-03-07T21:57:55.739Z,32.77
2024-03-07T22:00:25.722Z,32.77
2024-03-07T22:03:00.390Z,31.77
2024-03-07T22:05:34.412Z,33.17
2024-03-07T22:08:05.426Z,33.70
2024-03-07T22:10:36.469Z,33.23
2024-03-07T22:13:06.531Z,33.27
2024-03-07T22:15:34.191Z,33.40
2024-03-07T22:18:01.485Z,32.63
2024-03-07T22:20:31.806Z,33.20
2024-03-07T22:22:59.780Z,34.50
2024-03-07T22:25:27.088Z,34.13
2024-03-07T22:27:54.564Z,35.73
2024-03-07T22:30:25.642Z,34.00
2024-03-07T22:32:54.215Z,35.27
2024-03-07T22:35:21.664Z,33.53
2024-03-07T22:37:48.898Z,34.83
2024-03-07T22:40:16.113Z,34.77
2024-03-07T22:42:49.423Z,34.77
2024-03-07T22:45:18.045Z,34.70
2024-03-07T22:47:52.636Z,34.80
2024-03-07T22:50:27.890Z,35.63
2024-03-07T22:52:59.483Z,35.57
2024-03-07T22:55:29.339Z,36.23
2024-03-07T22:57:57.531Z,34.90
2024-03-07T23:00:29.766Z,35.13
2024-03-07T23:03:01.542Z,33.83
2024-03-07T23:05:30.371Z,34.03
2024-03-07T23:08:01.860Z,35.33
2024-03-07T23:10:32.215Z,34.70
2024-03-07T23:13:03.041Z,35.00
2024-03-07T23:15:31.939Z,34.70
2024-03-07T23:18:00.947Z,34.30
2024-03-07T23:20:30.125Z,33.90
2024-03-07T23:22:58.793Z,33.67
2024-03-07T23:25:30.107Z,34.27
2024-03-07T23:27:58.160Z,34.07
2024-03-07T23:30:28.281Z,34.70
2024-03-07T23:33:03.286Z,33.90
2024-03-07T23:35:30.380Z,33.53
2024-03-07T23:37:58.341Z,33.67
2024-03-07T23:40:26.061Z,35.50
2024-03-07T23:42:57.733Z,36.87
2024-03-07T23:45:28.587Z,34.13
2024-03-07T23:47:58.967Z,34.80
2024-03-07T23:50:28.121Z,34.57
2024-03-07T23:52:58.152Z,34.30
2024-03-07T23:55:25.355Z,34.57
2024-03-07T23:57:52.299Z,34.47
